sensor_id;sensor_type;location;lat;lon;timestamp;P1;durP1;ratioP1;P2;durP2;ratioP2
21000;SDS011;10658;50.920;12.238;2024-01-11T00:01:51;66.47;;;27.27;;
21000;SDS011;10658;50.920;12.238;2024-01-11T00:05:52;55.77;;;28.47;;
21000;SDS011;10658;50.920;12.238;2024-01-11T00:09:52;57.90;;;26.63;;
21000;SDS011;10658;50.920;12.238;2024-01-11T00:13:53;62.27;;;27.60;;
21000;SDS011;10658;50.920;12.238;2024-01-11T00:17:54;54.47;;;26.07;;
21000;SDS011;10658;50.920;12.238;2024-01-11T00:21:54;54.07;;;26.47;;
21000;SDS011;10658;50.920;12.238;2024-01-11T00:25:55;63.07;;;26.83;;
21000;SDS011;10658;50.920;12.238;2024-01-11T00:29:56;54.73;;;26.10;;
21000;SDS011;10658;50.920;12.238;2024-01-11T00:33:57;45.00;;;25.60;;
21000;SDS011;10658;50.920;12.238;2024-01-11T00:37:58;61.87;;;25.87;;
21000;SDS011;10658;50.920;12.238;2024-01-11T00:41:59;51.63;;;27.70;;
21000;SDS011;10658;50.920;12.238;2024-01-11T00:46:00;53.40;;;25.17;;
21000;SDS011;10658;50.920;12.238;2024-01-11T00:50:00;60.00;;;25.43;;
21000;SDS011;10658;50.920;12.238;2024-01-11T00:54:01;51.80;;;24.77;;
21000;SDS011;10658;50.920;12.238;2024-01-11T00:58:02;54.83;;;27.60;;
21000;SDS011;10658;50.920;12.238;2024-01-11T01:02:03;67.53;;;28.80;;
21000;SDS011;10658;50.920;12.238;2024-01-11T01:06:03;70.70;;;28.33;;
21000;SDS011;10658;50.920;12.238;2024-01-11T01:10:05;56.77;;;26.00;;
21000;SDS011;10658;50.920;12.238;2024-01-11T01:14:06;52.33;;;26.93;;
21000;SDS011;10658;50.920;12.238;2024-01-11T01:18:07;62.47;;;26.47;;
21000;SDS011;10658;50.920;12.238;2024-01-11T01:22:08;54.30;;;26.10;;
21000;SDS011;10658;50.920;12.238;2024-01-11T01:26:08;61.17;;;28.33;;
21000;SDS011;10658;50.920;12.238;2024-01-11T01:30:09;67.27;;;27.93;;
21000;SDS011;10658;50.920;12.238;2024-01-11T01:34:10;61.23;;;26.53;;
21000;SDS011;10658;50.920;12.238;2024-01-11T01:38:12;61.83;;;27.13;;
21000;SDS011;10658;50.920;12.238;2024-01-11T01:42:13;57.23;;;27.73;;
21000;SDS011;10658;50.920;12.238;2024-01-11T01:46:14;61.27;;;25.90;;
21000;SDS011;10658;50.920;12.238;2024-01-11T01:50:20;61.13;;;29.00;;
21000;SDS011;10658;50.920;12.238;2024-01-11T01:54:21;57.80;;;27.63;;
21000;SDS011;10658;50.920;12.238;2024-01-11T01:58:24;57.53;;;25.03;;
21000;SDS011;10658;50.920;12.238;2024-01-11T02:02:24;55.20;;;26.90;;
21000;SDS011;10658;50.920;12.238;2024-01-11T02:06:27;58.00;;;26.50;;
21000;SDS011;10658;50.920;12.238;2024-01-11T02:10:32;54.63;;;25.10;;
21000;SDS011;10658;50.920;12.238;2024-01-11T02:14:33;55.93;;;25.00;;
21000;SDS011;10658;50.920;12.238;2024-01-11T02:18:34;52.03;;;24.07;;
21000;SDS011;10658;50.920;12.238;2024-01-11T02:22:36;58.47;;;26.33;;
21000;SDS011;10658;50.920;12.238;2024-01-11T02:26:59;59.00;;;26.90;;
21000;SDS011;10658;50.920;12.238;2024-01-11T02:31:02;64.33;;;26.50;;
21000;SDS011;10658;50.920;12.238;2024-01-11T02:35:03;50.50;;;25.70;;
21000;SDS011;10658;50.920;12.238;2024-01-11T02:39:04;60.53;;;25.93;;
21000;SDS011;10658;50.920;12.238;2024-01-11T02:43:09;58.83;;;28.27;;
21000;SDS011;10658;50.920;12.238;2024-01-11T02:47:12;51.83;;;22.77;;
21000;SDS011;10658;50.920;12.238;2024-01-11T02:51:13;55.53;;;25.50;;
21000;SDS011;10658;50.920;12.238;2024-01-11T02:55:14;68.07;;;26.37;;
21000;SDS011;10658;50.920;12.238;2024-01-11T02:59:15;54.33;;;25.57;;
21000;SDS011;10658;50.920;12.238;2024-01-11T03:03:15;58.00;;;26.67;;
21000;SDS011;10658;50.920;12.238;2024-01-11T03:07:16;56.93;;;25.67;;
21000;SDS011;10658;50.920;12.238;2024-01-11T03:11:17;63.53;;;25.33;;
21000;SDS011;10658;50.920;12.238;2024-01-11T03:15:18;51.23;;;24.67;;
21000;SDS011;10658;50.920;12.238;2024-01-11T03:19:18;56.47;;;24.97;;
21000;SDS011;10658;50.920;12.238;2024-01-11T03:23:19;56.53;;;24.57;;
21000;SDS011;10658;50.920;12.238;2024-01-11T03:27:20;57.67;;;26.30;;
21000;SDS011;10658;50.920;12.238;2024-01-11T03:31:20;51.00;;;24.10;;
21000;SDS011;10658;50.920;12.238;2024-01-11T03:35:21;57.47;;;25.47;;
21000;SDS011;10658;50.920;12.238;2024-01-11T03:39:22;49.50;;;24.43;;
21000;SDS011;10658;50.920;12.238;2024-01-11T03:43:23;61.13;;;27.67;;
21000;SDS011;10658;50.920;12.238;2024-01-11T03:47:25;50.37;;;23.47;;
21000;SDS011;10658;50.920;12.238;2024-01-11T03:51:25;49.47;;;26.53;;
21000;SDS011;10658;50.920;12.238;2024-01-11T03:55:26;53.83;;;24.63;;
21000;SDS011;10658;50.920;12.238;2024-01-11T03:59:27;53.63;;;23.43;;
21000;SDS011;10658;50.920;12.238;2024-01-11T04:03:28;54.27;;;23.37;;
21000;SDS011;10658;50.920;12.238;2024-01-11T04:07:29;57.37;;;24.03;;
21000;SDS011;10658;50.920;12.238;2024-01-11T04:11:29;64.73;;;26.80;;
21000;SDS011;10658;50.920;12.238;2024-01-11T04:15:30;54.83;;;24.90;;
21000;SDS011;10658;50.920;12.238;2024-01-11T04:19:31;46.73;;;22.20;;
21000;SDS011;10658;50.920;12.238;2024-01-11T04:23:32;57.57;;;25.00;;
21000;SDS011;10658;50.920;12.238;2024-01-11T04:27:32;54.87;;;24.37;;
21000;SDS011;10658;50.920;12.238;2024-01-11T04:31:33;55.80;;;24.50;;
21000;SDS011;10658;50.920;12.238;2024-01-11T04:35:34;59.97;;;26.77;;
21000;SDS011;10658;50.920;12.238;2024-01-11T04:39:35;59.87;;;25.07;;
21000;SDS011;10658;50.920;12.238;2024-01-11T04:43:39;44.93;;;24.10;;
21000;SDS011;10658;50.920;12.238;2024-01-11T04:47:44;58.50;;;24.87;;
21000;SDS011;10658;50.920;12.238;2024-01-11T04:51:45;65.03;;;23.37;;
21000;SDS011;10658;50.920;12.238;2024-01-11T04:55:45;55.03;;;24.43;;
21000;SDS011;10658;50.920;12.238;2024-01-11T04:59:46;55.10;;;23.53;;
21000;SDS011;10658;50.920;12.238;2024-01-11T05:03:47;61.70;;;21.77;;
21000;SDS011;10658;50.920;12.238;2024-01-11T05:07:48;48.83;;;22.80;;
21000;SDS011;10658;50.920;12.238;2024-01-11T05:11:48;52.80;;;25.27;;
21000;SDS011;10658;50.920;12.238;2024-01-11T05:15:49;58.63;;;24.30;;
21000;SDS011;10658;50.920;12.238;2024-01-11T05:19:50;66.40;;;25.90;;
21000;SDS011;10658;50.920;12.238;2024-01-11T05:23:51;55.73;;;26.30;;
21000;SDS011;10658;50.920;12.238;2024-01-11T05:27:52;59.60;;;26.27;;
21000;SDS011;10658;50.920;12.238;2024-01-11T05:31:53;54.43;;;23.77;;
21000;SDS011;10658;50.920;12.238;2024-01-11T05:35:54;56.40;;;24.70;;
21000;SDS011;10658;50.920;12.238;2024-01-11T05:39:55;54.90;;;23.13;;
21000;SDS011;10658;50.920;12.238;2024-01-11T05:43:57;70.33;;;26.60;;
21000;SDS011;10658;50.920;12.238;2024-01-11T05:47:57;57.77;;;24.57;;
21000;SDS011;10658;50.920;12.238;2024-01-11T05:51:58;56.43;;;26.23;;
21000;SDS011;10658;50.920;12.238;2024-01-11T05:55:59;62.90;;;25.67;;
21000;SDS011;10658;50.920;12.238;2024-01-11T05:59:59;54.27;;;25.73;;
21000;SDS011;10658;50.920;12.238;2024-01-11T06:04:00;54.47;;;24.47;;
21000;SDS011;10658;50.920;12.238;2024-01-11T06:08:01;58.13;;;26.67;;
21000;SDS011;10658;50.920;12.238;2024-01-11T06:12:02;57.83;;;23.43;;
21000;SDS011;10658;50.920;12.238;2024-01-11T06:16:02;60.40;;;26.70;;
21000;SDS011;10658;50.920;12.238;2024-01-11T06:20:03;53.23;;;24.63;;
21000;SDS011;10658;50.920;12.238;2024-01-11T06:24:05;53.53;;;24.17;;
21000;SDS011;10658;50.920;12.238;2024-01-11T06:28:06;66.13;;;23.73;;
21000;SDS011;10658;50.920;12.238;2024-01-11T06:32:08;56.97;;;26.30;;
21000;SDS011;10658;50.920;12.238;2024-01-11T06:36:09;49.73;;;23.53;;
21000;SDS011;10658;50.920;12.238;2024-01-11T06:40:10;56.20;;;26.43;;
21000;SDS011;10658;50.920;12.238;2024-01-11T06:44:11;64.80;;;27.23;;
21000;SDS011;10658;50.920;12.238;2024-01-11T06:48:12;59.30;;;24.73;;
21000;SDS011;10658;50.920;12.238;2024-01-11T06:52:13;59.67;;;24.63;;
21000;SDS011;10658;50.920;12.238;2024-01-11T06:56:17;55.27;;;24.43;;
21000;SDS011;10658;50.920;12.238;2024-01-11T07:00:19;60.90;;;27.00;;
21000;SDS011;10658;50.920;12.238;2024-01-11T07:04:21;56.27;;;24.20;;
21000;SDS011;10658;50.920;12.238;2024-01-11T07:08:22;48.80;;;23.80;;
21000;SDS011;10658;50.920;12.238;2024-01-11T07:12:23;59.90;;;25.90;;
21000;SDS011;10658;50.920;12.238;2024-01-11T07:16:24;58.27;;;26.37;;
21000;SDS011;10658;50.920;12.238;2024-01-11T07:20:24;73.17;;;28.27;;
21000;SDS011;10658;50.920;12.238;2024-01-11T07:24:25;61.30;;;27.00;;
21000;SDS011;10658;50.920;12.238;2024-01-11T07:28:26;65.20;;;29.93;;
21000;SDS011;10658;50.920;12.238;2024-01-11T07:32:27;58.43;;;25.73;;
21000;SDS011;10658;50.920;12.238;2024-01-11T07:36:28;74.97;;;28.57;;
21000;SDS011;10658;50.920;12.238;2024-01-11T07:40:28;57.93;;;25.07;;
21000;SDS011;10658;50.920;12.238;2024-01-11T07:44:29;66.23;;;26.43;;
21000;SDS011;10658;50.920;12.238;2024-01-11T07:48:30;58.57;;;27.83;;
21000;SDS011;10658;50.920;12.238;2024-01-11T07:52:31;62.90;;;26.13;;
21000;SDS011;10658;50.920;12.238;2024-01-11T07:56:32;49.93;;;22.40;;
21000;SDS011;10658;50.920;12.238;2024-01-11T08:00:33;70.73;;;29.80;;
21000;SDS011;10658;50.920;12.238;2024-01-11T08:04:34;68.30;;;30.03;;
21000;SDS011;10658;50.920;12.238;2024-01-11T08:08:35;59.33;;;28.03;;
21000;SDS011;10658;50.920;12.238;2024-01-11T08:12:36;62.13;;;27.53;;
21000;SDS011;10658;50.920;12.238;2024-01-11T08:16:37;68.43;;;29.07;;
21000;SDS011;10658;50.920;12.238;2024-01-11T08:20:39;59.53;;;25.60;;
21000;SDS011;10658;50.920;12.238;2024-01-11T08:24:39;65.87;;;28.80;;
21000;SDS011;10658;50.920;12.238;2024-01-11T08:28:40;66.43;;;28.37;;
21000;SDS011;10658;50.920;12.238;2024-01-11T08:32:41;64.60;;;30.20;;
21000;SDS011;10658;50.920;12.238;2024-01-11T08:36:42;57.70;;;26.57;;
21000;SDS011;10658;50.920;12.238;2024-01-11T08:40:43;64.23;;;28.43;;
21000;SDS011;10658;50.920;12.238;2024-01-11T08:44:44;67.53;;;29.90;;
21000;SDS011;10658;50.920;12.238;2024-01-11T08:48:45;64.10;;;26.70;;
21000;SDS011;10658;50.920;12.238;2024-01-11T08:52:46;63.40;;;26.90;;
21000;SDS011;10658;50.920;12.238;2024-01-11T08:56:47;53.50;;;25.33;;
21000;SDS011;10658;50.920;12.238;2024-01-11T09:00:47;73.07;;;31.67;;
21000;SDS011;10658;50.920;12.238;2024-01-11T09:04:48;69.67;;;29.13;;
21000;SDS011;10658;50.920;12.238;2024-01-11T09:08:49;63.13;;;28.03;;
21000;SDS011;10658;50.920;12.238;2024-01-11T09:12:50;68.40;;;29.13;;
21000;SDS011;10658;50.920;12.238;2024-01-11T09:16:50;66.93;;;29.83;;
21000;SDS011;10658;50.920;12.238;2024-01-11T09:20:51;64.43;;;29.13;;
21000;SDS011;10658;50.920;12.238;2024-01-11T09:24:52;67.90;;;30.67;;
21000;SDS011;10658;50.920;12.238;2024-01-11T09:28:52;77.33;;;32.70;;
21000;SDS011;10658;50.920;12.238;2024-01-11T09:32:53;77.93;;;32.77;;
21000;SDS011;10658;50.920;12.238;2024-01-11T09:36:54;71.57;;;31.17;;
21000;SDS011;10658;50.920;12.238;2024-01-11T09:41:06;65.40;;;28.43;;
21000;SDS011;10658;50.920;12.238;2024-01-11T09:45:17;66.73;;;30.97;;
21000;SDS011;10658;50.920;12.238;2024-01-11T09:49:18;67.93;;;30.43;;
21000;SDS011;10658;50.920;12.238;2024-01-11T09:53:22;68.57;;;29.10;;
21000;SDS011;10658;50.920;12.238;2024-01-11T09:57:29;70.80;;;31.53;;
21000;SDS011;10658;50.920;12.238;2024-01-11T10:01:30;68.20;;;31.37;;
21000;SDS011;10658;50.920;12.238;2024-01-11T10:05:31;55.30;;;28.30;;
21000;SDS011;10658;50.920;12.238;2024-01-11T10:09:34;71.13;;;31.17;;
21000;SDS011;10658;50.920;12.238;2024-01-11T10:13:35;61.97;;;30.70;;
21000;SDS011;10658;50.920;12.238;2024-01-11T10:17:40;74.53;;;32.90;;
21000;SDS011;10658;50.920;12.238;2024-01-11T10:21:42;68.73;;;28.97;;
21000;SDS011;10658;50.920;12.238;2024-01-11T10:25:43;60.53;;;31.67;;
21000;SDS011;10658;50.920;12.238;2024-01-11T10:29:44;66.93;;;33.20;;
21000;SDS011;10658;50.920;12.238;2024-01-11T10:33:46;58.47;;;30.27;;
21000;SDS011;10658;50.920;12.238;2024-01-11T10:37:47;66.93;;;31.40;;
21000;SDS011;10658;50.920;12.238;2024-01-11T10:41:51;65.33;;;28.73;;
21000;SDS011;10658;50.920;12.238;2024-01-11T10:45:57;70.23;;;30.53;;
21000;SDS011;10658;50.920;12.238;2024-01-11T10:50:01;57.37;;;26.90;;
21000;SDS011;10658;50.920;12.238;2024-01-11T10:54:03;54.17;;;24.13;;
21000;SDS011;10658;50.920;12.238;2024-01-11T10:58:04;65.53;;;31.43;;
21000;SDS011;10658;50.920;12.238;2024-01-11T11:02:05;66.30;;;30.57;;
21000;SDS011;10658;50.920;12.238;2024-01-11T11:06:08;61.63;;;31.37;;
21000;SDS011;10658;50.920;12.238;2024-01-11T11:10:09;64.93;;;30.53;;
21000;SDS011;10658;50.920;12.238;2024-01-11T11:14:16;61.07;;;28.20;;
21000;SDS011;10658;50.920;12.238;2024-01-11T11:18:18;58.93;;;29.20;;
21000;SDS011;10658;50.920;12.238;2024-01-11T11:22:20;68.63;;;31.60;;
21000;SDS011;10658;50.920;12.238;2024-01-11T11:26:21;62.97;;;29.57;;
21000;SDS011;10658;50.920;12.238;2024-01-11T11:30:22;65.67;;;30.10;;
21000;SDS011;10658;50.920;12.238;2024-01-11T11:34:42;59.87;;;28.93;;
21000;SDS011;10658;50.920;12.238;2024-01-11T11:38:45;60.70;;;28.57;;
21000;SDS011;10658;50.920;12.238;2024-01-11T11:42:45;58.47;;;27.97;;
21000;SDS011;10658;50.920;12.238;2024-01-11T11:46:46;56.27;;;26.60;;
21000;SDS011;10658;50.920;12.238;2024-01-11T11:50:48;70.50;;;29.30;;
21000;SDS011;10658;50.920;12.238;2024-01-11T11:55:02;67.37;;;30.73;;
21000;SDS011;10658;50.920;12.238;2024-01-11T11:59:04;56.27;;;27.83;;
21000;SDS011;10658;50.920;12.238;2024-01-11T12:03:06;55.93;;;28.30;;
21000;SDS011;10658;50.920;12.238;2024-01-11T12:07:09;56.53;;;30.03;;
21000;SDS011;10658;50.920;12.238;2024-01-11T12:11:13;61.53;;;28.37;;
21000;SDS011;10658;50.920;12.238;2024-01-11T12:15:18;58.70;;;29.97;;
21000;SDS011;10658;50.920;12.238;2024-01-11T12:19:18;59.30;;;30.53;;
21000;SDS011;10658;50.920;12.238;2024-01-11T12:23:19;67.57;;;30.93;;
21000;SDS011;10658;50.920;12.238;2024-01-11T12:27:20;58.80;;;31.67;;
21000;SDS011;10658;50.920;12.238;2024-01-11T12:31:21;54.00;;;28.03;;
21000;SDS011;10658;50.920;12.238;2024-01-11T12:35:22;48.45;;;23.40;;
21000;SDS011;10658;50.920;12.238;2024-01-11T12:39:27;53.23;;;27.63;;
21000;SDS011;10658;50.920;12.238;2024-01-11T12:43:27;58.50;;;27.50;;
21000;SDS011;10658;50.920;12.238;2024-01-11T12:47:28;59.45;;;27.60;;
21000;SDS011;10658;50.920;12.238;2024-01-11T12:51:29;53.40;;;27.42;;
21000;SDS011;10658;50.920;12.238;2024-01-11T12:55:30;65.85;;;27.63;;
21000;SDS011;10658;50.920;12.238;2024-01-11T12:59:30;58.47;;;27.30;;
21000;SDS011;10658;50.920;12.238;2024-01-11T13:03:31;44.95;;;22.65;;
21000;SDS011;10658;50.920;12.238;2024-01-11T13:07:32;51.33;;;24.80;;
21000;SDS011;10658;50.920;12.238;2024-01-11T13:11:33;49.55;;;24.38;;
21000;SDS011;10658;50.920;12.238;2024-01-11T13:15:34;57.08;;;26.38;;
21000;SDS011;10658;50.920;12.238;2024-01-11T13:19:37;53.08;;;27.00;;
21000;SDS011;10658;50.920;12.238;2024-01-11T13:23:38;50.03;;;25.00;;
21000;SDS011;10658;50.920;12.238;2024-01-11T13:27:40;51.38;;;24.95;;
21000;SDS011;10658;50.920;12.238;2024-01-11T13:31:40;51.72;;;26.90;;
21000;SDS011;10658;50.920;12.238;2024-01-11T13:35:41;50.45;;;25.42;;
21000;SDS011;10658;50.920;12.238;2024-01-11T13:39:45;53.72;;;26.85;;
21000;SDS011;10658;50.920;12.238;2024-01-11T13:43:45;50.45;;;25.83;;
21000;SDS011;10658;50.920;12.238;2024-01-11T13:47:46;44.85;;;24.73;;
21000;SDS011;10658;50.920;12.238;2024-01-11T13:51:47;52.17;;;25.75;;
21000;SDS011;10658;50.920;12.238;2024-01-11T13:55:48;49.22;;;26.00;;
21000;SDS011;10658;50.920;12.238;2024-01-11T13:59:49;53.28;;;25.60;;
21000;SDS011;10658;50.920;12.238;2024-01-11T14:03:50;46.83;;;22.95;;
21000;SDS011;10658;50.920;12.238;2024-01-11T14:07:51;48.70;;;24.48;;
21000;SDS011;10658;50.920;12.238;2024-01-11T14:11:58;46.50;;;24.10;;
21000;SDS011;10658;50.920;12.238;2024-01-11T14:15:58;47.63;;;23.20;;
21000;SDS011;10658;50.920;12.238;2024-01-11T14:19:59;51.33;;;24.20;;
21000;SDS011;10658;50.920;12.238;2024-01-11T14:24:01;49.67;;;25.25;;
21000;SDS011;10658;50.920;12.238;2024-01-11T14:28:02;50.67;;;24.95;;
21000;SDS011;10658;50.920;12.238;2024-01-11T14:32:04;46.80;;;23.40;;
21000;SDS011;10658;50.920;12.238;2024-01-11T14:36:05;50.80;;;25.63;;
21000;SDS011;10658;50.920;12.238;2024-01-11T14:40:07;48.92;;;23.98;;
21000;SDS011;10658;50.920;12.238;2024-01-11T14:44:11;47.10;;;25.00;;
21000;SDS011;10658;50.920;12.238;2024-01-11T14:48:12;59.13;;;29.77;;
21000;SDS011;10658;50.920;12.238;2024-01-11T14:52:13;50.20;;;26.67;;
21000;SDS011;10658;50.920;12.238;2024-01-11T14:56:14;50.95;;;24.70;;
21000;SDS011;10658;50.920;12.238;2024-01-11T15:00:14;47.05;;;22.00;;
21000;SDS011;10658;50.920;12.238;2024-01-11T15:04:16;46.63;;;23.05;;
21000;SDS011;10658;50.920;12.238;2024-01-11T15:08:17;52.65;;;23.52;;
21000;SDS011;10658;50.920;12.238;2024-01-11T15:12:18;46.47;;;23.70;;
21000;SDS011;10658;50.920;12.238;2024-01-11T15:16:25;48.33;;;23.20;;
21000;SDS011;10658;50.920;12.238;2024-01-11T15:20:26;46.42;;;23.92;;
21000;SDS011;10658;50.920;12.238;2024-01-11T15:24:27;42.00;;;22.65;;
21000;SDS011;10658;50.920;12.238;2024-01-11T15:28:28;48.47;;;23.63;;
21000;SDS011;10658;50.920;12.238;2024-01-11T15:32:29;45.92;;;24.23;;
21000;SDS011;10658;50.920;12.238;2024-01-11T15:36:30;55.93;;;25.43;;
21000;SDS011;10658;50.920;12.238;2024-01-11T15:40:31;48.83;;;24.93;;
21000;SDS011;10658;50.920;12.238;2024-01-11T15:44:32;53.97;;;26.23;;
21000;SDS011;10658;50.920;12.238;2024-01-11T15:48:34;48.23;;;26.77;;
21000;SDS011;10658;50.920;12.238;2024-01-11T15:52:35;51.40;;;24.77;;
21000;SDS011;10658;50.920;12.238;2024-01-11T15:56:36;58.75;;;25.73;;
21000;SDS011;10658;50.920;12.238;2024-01-11T16:00:37;48.58;;;23.25;;
21000;SDS011;10658;50.920;12.238;2024-01-11T16:04:38;56.33;;;24.40;;
21000;SDS011;10658;50.920;12.238;2024-01-11T16:08:39;47.70;;;23.10;;
21000;SDS011;10658;50.920;12.238;2024-01-11T16:12:40;55.07;;;24.47;;
21000;SDS011;10658;50.920;12.238;2024-01-11T16:16:42;46.55;;;21.75;;
21000;SDS011;10658;50.920;12.238;2024-01-11T16:20:46;46.77;;;23.80;;
21000;SDS011;10658;50.920;12.238;2024-01-11T16:25:12;44.37;;;22.30;;
21000;SDS011;10658;50.920;12.238;2024-01-11T16:29:21;51.87;;;25.93;;
21000;SDS011;10658;50.920;12.238;2024-01-11T16:33:22;50.17;;;23.83;;
21000;SDS011;10658;50.920;12.238;2024-01-11T16:42:08;41.30;;;19.20;;
21000;SDS011;10658;50.920;12.238;2024-01-11T16:46:52;36.80;;;19.57;;
21000;SDS011;10658;50.920;12.238;2024-01-11T16:51:45;38.40;;;17.93;;
21000;SDS011;10658;50.920;12.238;2024-01-11T16:55:47;30.60;;;15.30;;
21000;SDS011;10658;50.920;12.238;2024-01-11T16:59:49;33.37;;;15.67;;
21000;SDS011;10658;50.920;12.238;2024-01-11T17:03:50;37.73;;;17.37;;
21000;SDS011;10658;50.920;12.238;2024-01-11T17:07:51;34.17;;;14.27;;
21000;SDS011;10658;50.920;12.238;2024-01-11T17:11:52;22.27;;;10.10;;
21000;SDS011;10658;50.920;12.238;2024-01-11T17:15:56;15.63;;;7.53;;
21000;SDS011;10658;50.920;12.238;2024-01-11T17:19:58;17.17;;;7.85;;
21000;SDS011;10658;50.920;12.238;2024-01-11T17:23:58;12.70;;;6.63;;
21000;SDS011;10658;50.920;12.238;2024-01-11T17:27:59;17.33;;;6.63;;
21000;SDS011;10658;50.920;12.238;2024-01-11T17:32:00;12.30;;;6.43;;
21000;SDS011;10658;50.920;12.238;2024-01-11T17:36:01;12.43;;;7.03;;
21000;SDS011;10658;50.920;12.238;2024-01-11T17:40:02;13.07;;;7.30;;
21000;SDS011;10658;50.920;12.238;2024-01-11T17:44:05;10.45;;;6.45;;
21000;SDS011;10658;50.920;12.238;2024-01-11T17:48:06;10.90;;;6.75;;
21000;SDS011;10658;50.920;12.238;2024-01-11T17:52:10;11.47;;;6.13;;
21000;SDS011;10658;50.920;12.238;2024-01-11T17:56:11;14.82;;;6.50;;
21000;SDS011;10658;50.920;12.238;2024-01-11T18:00:12;13.45;;;6.53;;
21000;SDS011;10658;50.920;12.238;2024-01-11T18:04:13;13.07;;;7.70;;
21000;SDS011;10658;50.920;12.238;2024-01-11T18:08:14;12.90;;;7.00;;
21000;SDS011;10658;50.920;12.238;2024-01-11T18:12:15;11.50;;;7.45;;
21000;SDS011;10658;50.920;12.238;2024-01-11T18:16:16;16.30;;;7.13;;
21000;SDS011;10658;50.920;12.238;2024-01-11T18:20:17;13.82;;;7.63;;
21000;SDS011;10658;50.920;12.238;2024-01-11T18:24:18;17.15;;;7.85;;
21000;SDS011;10658;50.920;12.238;2024-01-11T18:28:19;15.55;;;8.20;;
21000;SDS011;10658;50.920;12.238;2024-01-11T18:32:20;18.92;;;9.50;;
21000;SDS011;10658;50.920;12.238;2024-01-11T18:36:21;19.27;;;9.00;;
21000;SDS011;10658;50.920;12.238;2024-01-11T18:40:26;16.92;;;7.57;;
21000;SDS011;10658;50.920;12.238;2024-01-11T18:44:28;25.38;;;13.77;;
21000;SDS011;10658;50.920;12.238;2024-01-11T18:48:29;32.95;;;15.77;;
21000;SDS011;10658;50.920;12.238;2024-01-11T18:52:32;37.00;;;16.58;;
21000;SDS011;10658;50.920;12.238;2024-01-11T18:56:41;32.45;;;18.10;;
21000;SDS011;10658;50.920;12.238;2024-01-11T19:00:44;34.47;;;17.57;;
21000;SDS011;10658;50.920;12.238;2024-01-11T19:04:45;35.72;;;19.05;;
21000;SDS011;10658;50.920;12.238;2024-01-11T19:08:45;35.92;;;19.08;;
21000;SDS011;10658;50.920;12.238;2024-01-11T19:12:46;45.53;;;23.75;;
21000;SDS011;10658;50.920;12.238;2024-01-11T19:16:47;47.20;;;23.42;;
21000;SDS011;10658;50.920;12.238;2024-01-11T19:20:48;36.45;;;18.95;;
21000;SDS011;10658;50.920;12.238;2024-01-11T19:24:53;36.28;;;18.08;;
21000;SDS011;10658;50.920;12.238;2024-01-11T19:28:53;47.47;;;23.92;;
21000;SDS011;10658;50.920;12.238;2024-01-11T19:32:54;65.22;;;29.27;;
21000;SDS011;10658;50.920;12.238;2024-01-11T19:36:55;50.40;;;23.20;;
21000;SDS011;10658;50.920;12.238;2024-01-11T19:40:56;45.90;;;20.67;;
21000;SDS011;10658;50.920;12.238;2024-01-11T19:44:57;37.03;;;19.15;;
21000;SDS011;10658;50.920;12.238;2024-01-11T19:48:58;35.35;;;18.25;;
21000;SDS011;10658;50.920;12.238;2024-01-11T19:52:59;33.88;;;17.42;;
21000;SDS011;10658;50.920;12.238;2024-01-11T19:57:00;37.58;;;17.83;;
21000;SDS011;10658;50.920;12.238;2024-01-11T20:01:01;35.00;;;16.27;;
21000;SDS011;10658;50.920;12.238;2024-01-11T20:05:05;33.03;;;15.23;;
21000;SDS011;10658;50.920;12.238;2024-01-11T20:09:06;32.42;;;14.25;;
21000;SDS011;10658;50.920;12.238;2024-01-11T20:13:07;24.75;;;11.68;;
21000;SDS011;10658;50.920;12.238;2024-01-11T20:17:08;22.85;;;12.25;;
21000;SDS011;10658;50.920;12.238;2024-01-11T20:21:09;25.15;;;13.23;;
21000;SDS011;10658;50.920;12.238;2024-01-11T20:25:13;24.38;;;13.20;;
21000;SDS011;10658;50.920;12.238;2024-01-11T20:29:14;26.05;;;13.07;;
21000;SDS011;10658;50.920;12.238;2024-01-11T20:33:15;23.70;;;13.20;;
21000;SDS011;10658;50.920;12.238;2024-01-11T20:37:15;28.92;;;14.35;;
21000;SDS011;10658;50.920;12.238;2024-01-11T20:41:17;28.10;;;15.63;;
21000;SDS011;10658;50.920;12.238;2024-01-11T20:45:18;31.50;;;16.80;;
21000;SDS011;10658;50.920;12.238;2024-01-11T20:49:19;25.13;;;14.65;;
21000;SDS011;10658;50.920;12.238;2024-01-11T20:53:23;28.25;;;14.18;;
21000;SDS011;10658;50.920;12.238;2024-01-11T20:57:24;31.55;;;14.77;;
21000;SDS011;10658;50.920;12.238;2024-01-11T21:01:25;28.77;;;14.45;;
21000;SDS011;10658;50.920;12.238;2024-01-11T21:05:25;31.23;;;13.27;;
21000;SDS011;10658;50.920;12.238;2024-01-11T21:09:26;26.33;;;13.73;;
21000;SDS011;10658;50.920;12.238;2024-01-11T21:13:27;26.23;;;12.02;;
21000;SDS011;10658;50.920;12.238;2024-01-11T21:17:33;22.57;;;12.10;;
21000;SDS011;10658;50.920;12.238;2024-01-11T21:21:38;22.73;;;11.98;;
21000;SDS011;10658;50.920;12.238;2024-01-11T21:25:40;23.20;;;11.57;;
21000;SDS011;10658;50.920;12.238;2024-01-11T21:29:41;25.85;;;11.88;;
21000;SDS011;10658;50.920;12.238;2024-01-11T21:33:43;21.55;;;11.32;;
21000;SDS011;10658;50.920;12.238;2024-01-11T21:37:44;29.88;;;13.07;;
21000;SDS011;10658;50.920;12.238;2024-01-11T21:41:46;25.98;;;12.30;;
21000;SDS011;10658;50.920;12.238;2024-01-11T21:45:49;27.42;;;12.48;;
21000;SDS011;10658;50.920;12.238;2024-01-11T21:49:49;23.00;;;12.07;;
21000;SDS011;10658;50.920;12.238;2024-01-11T21:53:50;25.27;;;13.80;;
21000;SDS011;10658;50.920;12.238;2024-01-11T21:57:57;21.13;;;11.35;;
21000;SDS011;10658;50.920;12.238;2024-01-11T22:01:58;26.20;;;12.50;;
21000;SDS011;10658;50.920;12.238;2024-01-11T22:05:58;21.73;;;11.90;;
21000;SDS011;10658;50.920;12.238;2024-01-11T22:09:59;31.95;;;14.93;;
21000;SDS011;10658;50.920;12.238;2024-01-11T22:14:01;24.88;;;14.18;;
21000;SDS011;10658;50.920;12.238;2024-01-11T22:18:02;28.90;;;13.80;;
21000;SDS011;10658;50.920;12.238;2024-01-11T22:22:04;30.48;;;14.85;;
21000;SDS011;10658;50.920;12.238;2024-01-11T22:26:05;24.42;;;14.90;;
21000;SDS011;10658;50.920;12.238;2024-01-11T22:30:05;28.75;;;15.10;;
21000;SDS011;10658;50.920;12.238;2024-01-11T22:34:07;27.15;;;15.02;;
21000;SDS011;10658;50.920;12.238;2024-01-11T22:38:08;25.33;;;14.43;;
21000;SDS011;10658;50.920;12.238;2024-01-11T22:42:09;29.23;;;15.20;;
21000;SDS011;10658;50.920;12.238;2024-01-11T22:46:10;27.63;;;15.20;;
21000;SDS011;10658;50.920;12.238;2024-01-11T22:50:11;28.13;;;15.32;;
21000;SDS011;10658;50.920;12.238;2024-01-11T22:54:12;25.40;;;15.25;;
21000;SDS011;10658;50.920;12.238;2024-01-11T22:58:12;29.15;;;14.70;;
21000;SDS011;10658;50.920;12.238;2024-01-11T23:02:14;26.80;;;14.52;;
21000;SDS011;10658;50.920;12.238;2024-01-11T23:06:16;30.30;;;15.15;;
21000;SDS011;10658;50.920;12.238;2024-01-11T23:10:17;32.80;;;14.52;;
21000;SDS011;10658;50.920;12.238;2024-01-11T23:14:19;28.00;;;15.27;;
21000;SDS011;10658;50.920;12.238;2024-01-11T23:18:23;24.83;;;13.98;;